KSPA/SPA METAR and TAF weather

Enter ICAO airport designator
Station Type Date Time Source
KSPA METAR 2019/02/20 17:15 UTC NOAA

KSPA 201715Z AUTO 04011KT 5SM -DZ OVC004 02/01 A3027 RMK AO2


Station Type Date Time Source
KSPA Decoded METAR 2019/02/20 17:15 UTC NOAA

Spartanburg Memorial, SC, United States (KSPA) 34-55N 081-57W
Feb 20, 2019 - 12:15 PM EST / 2019.02.20 1715 UTC
Wind: from the NE (040 degrees) at 13 MPH (11 KT):0
Visibility: 5 mile(s):0
Sky conditions: overcast
Weather: light drizzle
Temperature: 35 F (2 C)
Windchill: 26 F (-3 C):1
Dew Point: 33 F (1 C)
Relative Humidity: 93%
Pressure (altimeter): 30.27 in. Hg (1025 hPa)
ob: KSPA 201715Z AUTO 04011KT 5SM -DZ OVC004 02/01 A3027 RMK AO2
cycle: 17

Station Type Date Time Source
KSPA TAF UTC NOAA

Error!


Example: see airport list